Hovedside
METAR-TAF:

METAR-TAF

Lufthavner :

Perth, Australia

Perth lufthavn

breddegrad: 31-56S, lengdegrad: 115-57E, høyde over havet: 20 m

Gjeldene værobservasjon

Denne rapporten ble laget for 46 minutter siden, klokken 01:30 UTC
Vind 15 kt fra Øst
Temperatur 25°C
Luftfuktighet 54%
Trykk 1012 hPa
Sikt 10 km eller mer
Få skyer i en høyde av 3500 ft

METAR: YPPH 220130Z 10015KT 9999 FEW035 25/15 Q1012 NOSIG

Tid: 10:16 (02:16 UTC)

Varsel

Denne rapporten ble laget for 3 timer og 15 minutter siden, klokken 23:01 UTC
Varsel gyldig fra 22. klokken 00 UTC til 23. klokken 06 UTC
Vind 12 kt fra Øst-sørøst
Sikt 10 km eller mer
ingen skyer under 1500 m og ingen bygeskyer
Fra 22. klokken 0800 UTC
Vind 10 kt fra Sør-sørvest
Sikt 10 km eller mer
ingen skyer under 1500 m og ingen bygeskyer
Fra 22. klokken 1200 UTC
Vind 13 kt fra Øst-sørøst
Sikt 10 km eller mer
ingen skyer under 1500 m og ingen bygeskyer

TAF: YPPH 212301Z 2200/2306 12012KT CAVOK FM220800 20010KT CAVOK FM221200 12013KT CAVOK

Værobservasjoner og værvarsel for over 4000 flyplasser (METAR- og TAF-rapporter).

Tilgjengelige stasjoner er representert av de røde og gule prikkene på kartet.

Hold musepekeren over prikken for å se navnet på stasjonen.

Klikk så for å se værobservasjoner og -varsler.

For å forandre kartet kan du klikke på den grønne knappen med svart kryss for å zoome inn, på den grønne knappen med strek for å zoome ut, eller på de grønne pilene for å se tilstøtende kart.


METAR-TAF: